Time;durP1;ratioP1;P1;durP2;ratioP2;P2;SDS_P1;SDS_P2;PMS_P1;PMS_P2;Temp;Humidity;BMP_temperature;BMP_pressure;BME280_temperature;BME280_humidity;BME280_pressure;Samples;Min_cycle;Max_cycle;Signal;HPM_P1;HPM_P2
2023/10/09 00:01:51;;;;;;;0.55;0.52;;;13.40;5.30;;;;;;5037693;28;20095;-78
2023/10/09 00:04:17;;;;;;;1.30;0.52;;;13.40;61.20;;;;;;5031822;28;20047;-78
2023/10/09 00:06:43;;;;;;;1.02;0.30;;;13.30;99.90;;;;;;5035247;28;20106;-78
2023/10/09 00:11:57;;;;;;;0.60;0.60;;;13.40;99.90;;;;;;5037879;28;20397;-78
2023/10/09 00:14:24;;;;;;;1.45;0.80;;;13.20;99.90;;;;;;5030243;28;20065;-78
2023/10/09 00:16:56;;;;;;;0.00;0.00;;;13.40;1.00;;;;;;5040082;28;20036;-78
2023/10/09 00:19:30;;;;;;;1.20;1.00;;;13.60;1.00;;;;;;5039904;28;20049;-77
2023/10/09 00:21:58;;;;;;;0.20;0.20;;;13.30;1.00;;;;;;5039156;28;20045;-78
2023/10/09 00:24:24;;;;;;;3.65;1.38;;;13.30;1.00;;;;;;5038783;28;20057;-78
2023/10/09 00:26:56;;;;;;;0.10;0.08;;;13.30;1.20;;;;;;5040858;28;20067;-78
2023/10/09 00:29:22;;;;;;;3.40;0.55;;;13.30;1.00;;;;;;5039830;28;20597;-78
2023/10/09 00:34:41;;;;;;;1.33;0.60;;;13.40;1.00;;;;;;5037280;28;20810;-78
2023/10/09 00:37:16;;;;;;;2.05;0.15;;;13.40;1.00;;;;;;5039207;28;20068;-78
2023/10/09 00:39:45;;;;;;;0.20;0.15;;;13.40;1.00;;;;;;5037943;28;20402;-78
2023/10/09 00:42:25;;;;;;;0.03;0.03;;;13.40;1.00;;;;;;5038712;28;20068;-78
2023/10/09 00:44:51;;;;;;;1.40;0.75;;;13.40;45.00;;;;;;5038552;28;20080;-78
2023/10/09 00:47:20;;;;;;;0.50;0.35;;;13.40;8.60;;;;;;5039663;28;20079;-78
2023/10/09 00:50:11;;;;;;;1.25;0.85;;;13.60;62.30;;;;;;5039591;28;20045;-78
2023/10/09 00:53:30;;;;;;;1.55;1.10;;;13.40;79.50;;;;;;5039346;28;20128;-78
2023/10/09 00:55:37;;;;;;;1.25;0.80;;;13.40;94.00;;;;;;5028376;28;20466;-78
2023/10/09 00:58:10;;;;;;;0.20;0.20;;;13.40;99.90;;;;;;5039097;28;20124;-78
2023/10/09 01:05:57;;;;;;;2.55;1.77;;;13.40;99.90;;;;;;5055366;28;20053;-78
2023/10/09 01:08:43;;;;;;;1.08;0.88;;;13.40;99.90;;;;;;5051557;28;20037;-78
2023/10/09 01:11:18;;;;;;;1.20;0.73;;;13.50;99.90;;;;;;5054167;28;20053;-78
2023/10/09 01:16:21;;;;;;;0.55;0.55;;;13.80;99.90;;;;;;5053403;28;20053;-77
2023/10/09 01:18:51;;;;;;;1.00;0.93;;;13.40;99.90;;;;;;5054288;28;20432;-77
2023/10/09 01:21:22;;;;;;;0.45;0.45;;;13.40;99.90;;;;;;5052864;28;20120;-77
2023/10/09 01:26:26;;;;;;;2.50;1.38;;;13.50;99.90;;;;;;5052659;28;20128;-77
2023/10/09 01:28:57;;;;;;;2.00;0.25;;;13.70;99.90;;;;;;5054833;28;20534;-77
2023/10/09 01:31:25;;;;;;;1.15;0.47;;;13.40;99.90;;;;;;5052714;28;20055;-77
2023/10/09 01:33:53;;;;;;;0.30;0.30;;;13.40;99.90;;;;;;5053377;28;20079;-77
2023/10/09 01:36:31;;;;;;;4.22;1.48;;;13.40;1.00;;;;;;5053354;28;20491;-77
2023/10/09 01:39:01;;;;;;;0.10;0.10;;;13.40;1.00;;;;;;5047638;28;20496;-77
2023/10/09 01:41:27;;;;;;;4.85;1.55;;;13.30;1.00;;;;;;5051487;28;20123;-77
2023/10/09 01:44:00;;;;;;;2.17;1.98;;;13.30;7.10;;;;;;5053834;28;20125;-77
2023/10/09 01:46:26;;;;;;;4.18;1.92;;;13.30;99.90;;;;;;5053676;28;20048;-77
2023/10/09 01:48:53;;;;;;;7.75;1.70;;;13.40;99.90;;;;;;5053661;28;20490;-77
2023/10/09 01:51:20;;;;;;;1.25;1.15;;;13.30;99.90;;;;;;5042222;28;20490;-77
2023/10/09 01:53:53;;;;;;;5.32;1.92;;;13.40;99.90;;;;;;5053698;28;20129;-77
2023/10/09 01:56:19;;;;;;;2.05;0.98;;;13.60;99.90;;;;;;5045061;28;20513;-77
2023/10/09 01:58:46;;;;;;;4.45;1.55;;;13.40;99.90;;;;;;5051007;28;20049;-77
2023/10/09 02:01:13;;;;;;;1.33;1.02;;;13.20;99.90;;;;;;5053213;28;20040;-77
2023/10/09 02:03:42;;;;;;;0.75;0.65;;;13.30;99.90;;;;;;5051401;28;20120;-77
2023/10/09 02:06:27;;;;;;;0.90;0.60;;;13.20;99.90;;;;;;5052954;28;20071;-77
2023/10/09 02:08:54;;;;;;;1.90;1.00;;;13.10;99.90;;;;;;5053043;28;20048;-78
2023/10/09 02:11:35;;;;;;;2.58;2.10;;;13.20;99.90;;;;;;5053204;28;20149;-77
2023/10/09 02:14:01;;;;;;;1.75;1.35;;;13.10;1.00;;;;;;5053508;28;20056;-77
2023/10/09 02:16:41;;;;;;;0.70;0.65;;;13.10;1.00;;;;;;5053163;28;20120;-78
2023/10/09 02:19:28;;;;;;;0.30;0.30;;;13.40;1.00;;;;;;5051931;28;20095;-77
2023/10/09 02:21:53;;;;;;;1.33;1.23;;;13.20;1.00;;;;;;5052886;28;20085;-77
2023/10/09 02:25:05;;;;;;;1.55;1.05;;;13.10;1.00;;;;;;5052570;28;20279;-77
2023/10/09 02:27:07;;;;;;;0.20;0.20;;;13.10;1.00;;;;;;5048501;28;20505;-77
2023/10/09 02:29:35;;;;;;;0.05;0.05;;;13.10;1.00;;;;;;5052104;28;20055;-77
2023/10/09 02:32:13;;;;;;;0.90;0.90;;;13.30;1.00;;;;;;5052893;28;20064;-77
2023/10/09 02:34:39;;;;;;;0.95;0.88;;;13.20;1.00;;;;;;5049287;28;20049;-77
2023/10/09 02:37:06;;;;;;;0.80;0.55;;;13.10;1.00;;;;;;5052574;28;20483;-78
2023/10/09 02:39:43;;;;;;;0.38;0.38;;;13.40;6.20;;;;;;5052081;28;20048;-78
2023/10/09 02:44:46;;;;;;;5.07;0.55;;;13.10;83.70;;;;;;5052802;28;20514;-77
2023/10/09 02:47:39;;;;;;;0.82;0.75;;;13.10;99.90;;;;;;5050887;28;20410;-77
2023/10/09 02:50:08;;;;;;;0.80;0.65;;;13.00;99.90;;;;;;5042796;28;20062;-76
2023/10/09 02:52:40;;;;;;;2.22;1.63;;;12.90;99.90;;;;;;5052630;28;20514;-76
2023/10/09 02:55:12;;;;;;;5.47;1.55;;;12.90;99.90;;;;;;5033934;28;20109;-77
2023/10/09 02:57:41;;;;;;;2.30;1.48;;;12.90;99.90;;;;;;5048949;28;20044;-77
2023/10/09 03:00:18;;;;;;;2.15;1.60;;;12.90;99.90;;;;;;5051580;28;20087;-77
2023/10/09 03:02:48;;;;;;;1.42;0.35;;;12.90;99.90;;;;;;5051981;28;20063;-77
2023/10/09 03:05:14;;;;;;;1.08;0.90;;;12.90;99.90;;;;;;5043619;28;20406;-77
2023/10/09 03:07:40;;;;;;;2.65;1.27;;;12.90;99.90;;;;;;5052557;28;20088;-77
2023/10/09 03:10:09;;;;;;;2.70;1.27;;;13.00;99.90;;;;;;5051784;28;20450;-77
2023/10/09 03:12:35;;;;;;;2.92;1.45;;;13.00;99.90;;;;;;5051838;28;20103;-77
2023/10/09 03:15:02;;;;;;;5.47;1.80;;;13.40;1.00;;;;;;5051676;28;20045;-77
2023/10/09 03:17:28;;;;;;;4.20;1.75;;;13.10;1.00;;;;;;5050761;28;20092;-77
2023/10/09 03:19:54;;;;;;;0.95;0.63;;;13.10;33.80;;;;;;5050982;28;20055;-77
2023/10/09 03:22:20;;;;;;;2.03;0.85;;;13.20;1.00;;;;;;5050186;28;20102;-77
2023/10/09 03:24:46;;;;;;;3.42;1.67;;;13.20;99.90;;;;;;5052309;28;20065;-77
2023/10/09 03:27:14;;;;;;;2.42;1.20;;;13.20;99.90;;;;;;5050281;28;20045;-77
2023/10/09 03:29:42;;;;;;;2.45;1.08;;;13.30;99.90;;;;;;5043928;28;20478;-77
2023/10/09 03:32:08;;;;;;;9.60;0.88;;;13.40;99.90;;;;;;5051291;28;20045;-77
2023/10/09 03:34:34;;;;;;;1.17;0.73;;;13.40;99.90;;;;;;5051535;28;20041;-77
2023/10/09 03:37:21;;;;;;;2.30;1.85;;;13.50;99.90;;;;;;5051730;28;20033;-77
2023/10/09 03:39:47;;;;;;;8.40;1.80;;;13.50;99.90;;;;;;5051579;28;20037;-77
2023/10/09 03:42:19;;;;;;;4.53;2.58;;;13.50;99.90;;;;;;5051616;28;20047;-77
2023/10/09 03:44:51;;;;;;;1.52;1.42;;;13.60;99.90;;;;;;5039982;28;20090;-77
2023/10/09 03:47:22;;;;;;;0.75;0.75;;;13.70;99.90;;;;;;5047979;28;20037;-77
2023/10/09 03:49:52;;;;;;;1.92;1.65;;;13.70;99.90;;;;;;5050487;28;20390;-77
2023/10/09 03:52:19;;;;;;;2.72;1.63;;;13.80;1.00;;;;;;5048268;28;20119;-77
2023/10/09 03:54:49;;;;;;;0.70;0.63;;;14.30;1.00;;;;;;5051539;28;20457;-77
2023/10/09 03:57:19;;;;;;;2.22;1.98;;;13.80;99.90;;;;;;5042070;28;20383;-77
2023/10/09 03:59:47;;;;;;;5.65;1.95;;;13.90;99.90;;;;;;5051528;28;20052;-77
2023/10/09 04:02:14;;;;;;;2.50;1.20;;;13.90;1.00;;;;;;5048968;28;20115;-77
2023/10/09 04:04:46;;;;;;;4.50;1.33;;;13.90;99.90;;;;;;5050946;28;20037;-76
2023/10/09 04:07:13;;;;;;;3.80;2.88;;;13.90;1.00;;;;;;5051554;28;20053;-76
2023/10/09 04:09:44;;;;;;;4.15;1.30;;;13.90;1.00;;;;;;5051187;28;20041;-76
2023/10/09 04:14:58;;;;;;;1.02;0.93;;;14.00;1.00;;;;;;5050923;28;20079;-76
2023/10/09 04:25:41;;;;;;;1.80;1.50;;;14.00;1.00;;;;;;5050255;28;20049;-77
2023/10/09 04:28:22;;;;;;;2.28;2.08;;;14.00;63.60;;;;;;5050948;28;20055;-77
2023/10/09 04:30:53;;;;;;;0.80;0.80;;;14.10;2.70;;;;;;5044239;28;20041;-77
2023/10/09 04:33:29;;;;;;;3.75;2.95;;;14.10;1.00;;;;;;5048285;28;20041;-77
2023/10/09 04:41:32;;;;;;;1.73;1.60;;;14.10;1.00;;;;;;5049942;28;20099;-77
2023/10/09 04:44:18;;;;;;;5.47;1.27;;;14.10;3.90;;;;;;5049015;28;20575;-77
2023/10/09 04:50:01;;;;;;;1.80;1.33;;;14.10;99.90;;;;;;5035258;28;20479;-77
2023/10/09 04:58:00;;;;;;;2.65;1.92;;;14.10;99.90;;;;;;5049804;28;20053;-77
2023/10/09 05:02:56;;;;;;;1.23;0.95;;;14.10;99.90;;;;;;5053594;28;20049;-77
2023/10/09 05:05:59;;;;;;;6.95;2.20;;;14.10;99.90;;;;;;5054159;28;20048;-77
2023/10/09 05:08:21;;;;;;;5.70;3.83;;;14.10;99.90;;;;;;5047603;28;20045;-77
2023/10/09 05:16:26;;;;;;;5.25;2.85;;;14.10;99.90;;;;;;5045599;28;20057;-77
2023/10/09 05:19:05;;;;;;;4.53;1.77;;;14.30;99.90;;;;;;5053567;28;20049;-77
2023/10/09 05:24:19;;;;;;;4.25;2.65;;;14.30;1.00;;;;;;5053472;28;20438;-77
2023/10/09 05:32:04;;;;;;;3.47;2.63;;;14.40;1.00;;;;;;5053676;28;20048;-78
2023/10/09 05:34:34;;;;;;;2.70;2.47;;;14.40;1.00;;;;;;5046537;28;20041;-78
2023/10/09 05:42:44;;;;;;;2.70;2.47;;;14.50;99.90;;;;;;5049630;28;20081;-78
2023/10/09 05:48:48;;;;;;;3.97;2.80;;;14.60;88.00;;;;;;5049670;28;20060;-79
2023/10/09 05:51:12;;;;;;;3.05;1.27;;;14.60;98.10;;;;;;5050123;28;20080;-79
2023/10/09 06:07:14;;;;;;;3.20;1.15;;;14.80;99.90;;;;;;5045642;28;20049;-78
2023/10/09 06:09:56;;;;;;;4.57;2.55;;;14.80;99.90;;;;;;5053674;28;20124;-78
2023/10/09 06:12:49;;;;;;;6.25;2.08;;;14.80;99.90;;;;;;5052638;28;20545;-77
2023/10/09 06:16:01;;;;;;;1.10;0.95;;;14.80;99.90;;;;;;5046407;28;20040;-77
2023/10/09 06:18:33;;;;;;;1.17;1.08;;;15.00;99.90;;;;;;5044390;28;20136;-77
2023/10/09 06:26:24;;;;;;;3.15;2.08;;;14.90;99.90;;;;;;5052433;28;20048;-77
2023/10/09 06:29:13;;;;;;;7.30;1.73;;;15.00;99.90;;;;;;5053404;28;20491;-77
2023/10/09 06:34:22;;;;;;;6.43;1.00;;;15.00;99.90;;;;;;5052169;28;20053;-77
2023/10/09 06:36:52;;;;;;;5.82;1.70;;;15.00;99.90;;;;;;5046885;28;20589;-77
2023/10/09 06:42:30;;;;;;;0.60;0.60;;;15.10;99.90;;;;;;5033013;28;20529;-77
2023/10/09 06:44:54;;;;;;;1.10;0.43;;;15.20;99.90;;;;;;5046005;28;20132;-77
2023/10/09 06:47:23;;;;;;;8.43;3.25;;;15.20;99.90;;;;;;5036964;28;20041;-77
2023/10/09 06:50:24;;;;;;;1.75;0.88;;;15.20;99.90;;;;;;5027651;28;20134;-77
2023/10/09 06:55:19;;;;;;;0.15;0.15;;;15.50;99.90;;;;;;5027040;28;20291;-77
2023/10/09 06:57:48;;;;;;;0.73;0.60;;;15.40;99.90;;;;;;5028106;28;20064;-76
2023/10/09 07:03:11;;;;;;;2.08;1.38;;;15.30;99.90;;;;;;5048626;28;20410;-77
2023/10/09 07:05:48;;;;;;;1.38;0.50;;;15.40;99.90;;;;;;5048514;28;20102;-77
2023/10/09 07:08:31;;;;;;;2.25;1.30;;;15.40;1.00;;;;;;5039379;28;20048;-77
2023/10/09 07:11:20;;;;;;;6.68;1.58;;;15.30;99.90;;;;;;5028371;28;20414;-77
2023/10/09 07:13:47;;;;;;;;;;;15.40;1.00;;;;;;5028961;28;20049;-77
2023/10/09 07:16:28;;;;;;;1.15;1.05;;;15.30;1.00;;;;;;5029397;28;19980;-77
2023/10/09 07:19:09;;;;;;;1.20;0.50;;;15.30;1.00;;;;;;5030771;28;20048;-77
2023/10/09 07:21:35;;;;;;;1.58;0.75;;;15.80;99.90;;;;;;5030333;28;20071;-76
2023/10/09 07:24:14;;;;;;;1.65;1.02;;;15.30;99.90;;;;;;5030755;28;20524;-77
2023/10/09 07:26:52;;;;;;;0.38;0.38;;;15.30;99.90;;;;;;5030826;28;20049;-77
2023/10/09 07:29:22;;;;;;;0.32;0.32;;;15.30;99.90;;;;;;5023246;28;20037;-77
2023/10/09 07:31:58;;;;;;;0.20;0.20;;;15.30;99.90;;;;;;5044698;28;20390;-77
2023/10/09 07:34:30;;;;;;;1.40;0.35;;;15.30;99.90;;;;;;5025938;28;20501;-77
2023/10/09 07:36:56;;;;;;;1.20;0.70;;;15.40;99.90;;;;;;5032434;28;20052;-77
2023/10/09 07:39:22;;;;;;;0.28;0.28;;;15.40;99.90;;;;;;5031384;28;20045;-77
2023/10/09 07:42:18;;;;;;;2.17;0.85;;;15.40;99.90;;;;;;5032558;28;20279;-77
2023/10/09 07:44:52;;;;;;;0.10;0.10;;;15.40;99.90;;;;;;5026029;28;20083;-77
2023/10/09 07:48:25;;;;;;;3.10;0.98;;;15.50;99.90;;;;;;5048643;28;20045;-77
2023/10/09 07:50:20;;;;;;;0.75;0.30;;;15.50;99.90;;;;;;5047338;28;20510;-77
2023/10/09 07:52:49;;;;;;;0.90;0.68;;;15.50;99.90;;;;;;5026906;28;20212;-77
2023/10/09 07:55:26;;;;;;;1.17;0.38;;;15.50;99.90;;;;;;5030101;28;20057;-77
2023/10/09 07:57:54;;;;;;;5.15;1.70;;;15.60;99.90;;;;;;5031975;28;20040;-77
2023/10/09 08:03:10;;;;;;;0.15;0.15;;;15.60;99.90;;;;;;5029846;28;20477;-77
2023/10/09 08:05:44;;;;;;;0.93;0.93;;;15.60;99.90;;;;;;5031279;28;20048;-77
2023/10/09 08:13:56;;;;;;;0.90;0.80;;;15.70;99.90;;;;;;5030178;28;20103;-77
2023/10/09 08:16:24;;;;;;;0.57;0.40;;;15.70;99.90;;;;;;5042923;28;20040;-77
2023/10/09 08:18:51;;;;;;;0.68;0.50;;;15.70;99.90;;;;;;5048511;28;20439;-77
2023/10/09 08:21:19;;;;;;;0.50;0.50;;;15.70;99.90;;;;;;5038330;28;20073;-76
2023/10/09 08:23:48;;;;;;;1.65;1.00;;;15.80;99.90;;;;;;5030211;28;20053;-77
2023/10/09 08:26:17;;;;;;;3.88;1.70;;;15.80;99.90;;;;;;5039944;28;20116;-77
2023/10/09 08:28:44;;;;;;;0.10;0.10;;;15.80;99.90;;;;;;5052584;28;20052;-77
2023/10/09 08:33:58;;;;;;;0.65;0.63;;;15.80;99.90;;;;;;5033091;28;20052;-76
2023/10/09 08:36:28;;;;;;;2.58;1.13;;;15.90;99.90;;;;;;5035554;28;20045;-76
2023/10/09 08:38:58;;;;;;;2.55;0.63;;;15.90;99.90;;;;;;5035180;28;20037;-76
2023/10/09 08:41:30;;;;;;;0.70;0.70;;;15.90;99.90;;;;;;5035432;28;20048;-77
2023/10/09 08:43:57;;;;;;;1.83;1.20;;;15.90;99.90;;;;;;5042636;28;20049;-77
2023/10/09 08:46:28;;;;;;;2.83;1.35;;;15.90;99.90;;;;;;5049178;28;20044;-77
2023/10/09 08:49:02;;;;;;;0.85;0.80;;;15.80;99.90;;;;;;5052994;28;20421;-77
2023/10/09 08:51:29;;;;;;;6.53;0.85;;;15.80;99.90;;;;;;5041372;28;20036;-76
2023/10/09 08:53:55;;;;;;;2.22;0.85;;;15.80;99.90;;;;;;5034818;28;20518;-77
2023/10/09 08:56:22;;;;;;;0.28;0.28;;;15.80;99.90;;;;;;5032737;28;20049;-77
2023/10/09 08:59:02;;;;;;;2.65;1.23;;;15.70;99.90;;;;;;5027903;28;20083;-77
2023/10/09 09:01:31;;;;;;;3.97;1.35;;;15.80;99.90;;;;;;5036710;28;20494;-77
2023/10/09 09:03:59;;;;;;;3.90;2.72;;;15.80;99.90;;;;;;5035023;28;20068;-77
2023/10/09 09:06:25;;;;;;;0.60;0.60;;;15.80;99.90;;;;;;5036112;28;20140;-76
2023/10/09 09:08:59;;;;;;;0.40;0.40;;;15.80;99.90;;;;;;5032471;28;20060;-77
2023/10/09 09:11:25;;;;;;;1.48;0.65;;;15.90;99.90;;;;;;5044341;28;20572;-77
2023/10/09 09:13:53;;;;;;;3.92;0.55;;;16.00;99.90;;;;;;5051942;28;20087;-77
2023/10/09 09:16:22;;;;;;;0.63;0.52;;;16.10;99.90;;;;;;5051728;28;20077;-77
2023/10/09 09:21:38;;;;;;;0.45;0.40;;;16.20;99.90;;;;;;5051711;28;20057;-77
2023/10/09 09:26:59;;;;;;;0.65;0.60;;;16.30;99.90;;;;;;5036662;28;20480;-76
2023/10/09 09:29:37;;;;;;;0.25;0.15;;;16.30;99.90;;;;;;5027533;28;20037;-77
2023/10/09 09:32:23;;;;;;;0.52;0.52;;;16.30;99.90;;;;;;5035910;28;20093;-77
2023/10/09 09:34:56;;;;;;;2.55;0.70;;;16.30;99.90;;;;;;5034352;28;20040;-77
2023/10/09 09:37:28;;;;;;;0.43;0.43;;;16.40;99.90;;;;;;5035544;28;20098;-77
2023/10/09 09:40:00;;;;;;;0.47;0.45;;;16.40;99.90;;;;;;5036335;28;20087;-77
2023/10/09 09:42:32;;;;;;;2.53;1.25;;;16.20;99.90;;;;;;5035965;28;20041;-77
2023/10/09 09:45:02;;;;;;;0.95;0.22;;;16.30;99.90;;;;;;5036482;28;20562;-77
2023/10/09 09:47:29;;;;;;;0.32;0.32;;;16.30;99.90;;;;;;5036400;28;20469;-77
2023/10/09 09:50:11;;;;;;;1.15;0.75;;;16.40;99.90;;;;;;5043158;28;20045;-77
2023/10/09 09:52:40;;;;;;;0.75;0.47;;;16.40;99.90;;;;;;5036288;28;20052;-77
2023/10/09 09:55:17;;;;;;;0.45;0.43;;;16.40;99.90;;;;;;5036198;28;20072;-77
2023/10/09 09:57:51;;;;;;;3.25;1.10;;;16.40;99.90;;;;;;5035382;28;20429;-77
2023/10/09 10:00:42;;;;;;;2.58;1.15;;;16.60;99.90;;;;;;5035928;28;20043;-77
2023/10/09 10:03:16;;;;;;;2.55;1.20;;;16.60;99.90;;;;;;5031739;28;20429;-77
2023/10/09 10:05:46;;;;;;;0.88;0.85;;;16.70;99.90;;;;;;5036714;28;20045;-77
2023/10/09 10:08:19;;;;;;;2.35;1.55;;;16.70;99.90;;;;;;5034691;28;20072;-77
2023/10/09 10:10:55;;;;;;;0.57;0.57;;;16.70;99.90;;;;;;5036835;28;20056;-78
2023/10/09 10:13:42;;;;;;;4.80;2.42;;;16.90;99.90;;;;;;5034926;28;20095;-77
2023/10/09 10:16:15;;;;;;;0.70;0.65;;;16.80;99.90;;;;;;5032702;28;20048;-77
2023/10/09 10:21:54;;;;;;;0.38;0.32;;;16.80;99.90;;;;;;5032000;28;20506;-77
2023/10/09 10:24:28;;;;;;;0.50;0.50;;;16.70;99.90;;;;;;5027875;28;20075;-77
2023/10/09 10:27:24;;;;;;;0.45;0.45;;;16.80;99.90;;;;;;5033197;28;20052;-77
2023/10/09 10:30:23;;;;;;;0.00;0.00;;;16.70;99.90;;;;;;5034214;28;20095;-76
2023/10/09 10:32:52;;;;;;;0.73;0.63;;;16.70;99.90;;;;;;5045948;28;20052;-77
2023/10/09 10:38:34;;;;;;;0.45;0.45;;;16.60;99.90;;;;;;5011347;28;20092;-76
2023/10/09 10:41:11;;;;;;;1.30;0.85;;;16.60;99.90;;;;;;5048181;28;20056;-76
2023/10/09 10:46:32;;;;;;;0.45;0.40;;;16.60;99.90;;;;;;5050458;28;20478;-76
2023/10/09 10:51:39;;;;;;;1.50;0.57;;;16.60;99.90;;;;;;5031718;28;20060;-76
2023/10/09 10:56:57;;;;;;;0.77;0.68;;;16.60;99.90;;;;;;5026945;28;20104;-77
2023/10/09 10:59:24;;;;;;;0.55;0.45;;;16.60;99.90;;;;;;5045375;28;20667;-76
2023/10/09 11:01:57;;;;;;;2.05;1.35;;;16.50;99.90;;;;;;5039148;28;20421;-76
2023/10/09 11:07:06;;;;;;;0.30;0.30;;;16.60;99.90;;;;;;5035436;28;20053;-77
2023/10/09 11:15:46;;;;;;;0.63;0.40;;;16.50;99.90;;;;;;5043641;28;20052;-76
2023/10/09 11:18:20;;;;;;;2.22;1.25;;;16.40;99.90;;;;;;5041370;28;20525;-76
2023/10/09 11:28:57;;;;;;;2.83;1.35;;;16.50;99.90;;;;;;5047551;28;20488;-77
2023/10/09 11:31:23;;;;;;;1.85;1.45;;;16.40;99.90;;;;;;5040421;28;20033;-77
2023/10/09 11:33:53;;;;;;;0.45;0.28;;;16.40;99.90;;;;;;5049782;28;20041;-77
2023/10/09 11:36:32;;;;;;;1.65;0.80;;;16.40;99.90;;;;;;5049093;28;20132;-77
2023/10/09 11:39:22;;;;;;;0.43;0.32;;;16.40;99.90;;;;;;5050749;28;20416;-77
2023/10/09 11:41:49;;;;;;;2.58;1.17;;;16.50;99.90;;;;;;5045100;28;20071;-77
2023/10/09 11:44:24;;;;;;;1.38;0.65;;;16.50;99.90;;;;;;5050564;28;20615;-77
2023/10/09 11:50:11;;;;;;;3.50;1.20;;;16.40;99.90;;;;;;5043676;28;20246;-77
2023/10/09 11:53:08;;;;;;;0.77;0.60;;;16.40;99.90;;;;;;5050169;28;20171;-78
2023/10/09 11:55:34;;;;;;;10.00;3.03;;;16.50;99.90;;;;;;5049874;28;20057;-77
2023/10/09 11:57:59;;;;;;;1.40;0.50;;;16.50;99.90;;;;;;5050618;28;20478;-77
2023/10/09 12:00:41;;;;;;;0.38;0.30;;;16.50;99.90;;;;;;5051453;28;20055;-77
2023/10/09 12:03:07;;;;;;;0.65;0.52;;;16.50;99.90;;;;;;5056729;28;20049;-77
2023/10/09 12:05:33;;;;;;;0.28;0.28;;;16.60;99.90;;;;;;5056598;28;20521;-77
2023/10/09 12:08:01;;;;;;;0.50;0.35;;;16.80;99.90;;;;;;5056885;28;20045;-78
2023/10/09 12:10:27;;;;;;;2.30;1.05;;;17.00;99.90;;;;;;5056734;28;20067;-77
2023/10/09 12:12:53;;;;;;;6.03;0.95;;;17.10;99.90;;;;;;5056515;28;20037;-78
2023/10/09 12:15:20;;;;;;;0.63;0.52;;;17.10;99.90;;;;;;5056813;28;20037;-77
2023/10/09 12:17:47;;;;;;;0.00;0.00;;;17.10;99.90;;;;;;5056549;28;20102;-77
2023/10/09 12:20:32;;;;;;;0.45;0.30;;;17.20;99.90;;;;;;5056791;28;20041;-77
2023/10/09 12:23:05;;;;;;;1.98;1.10;;;16.90;37.50;;;;;;5056755;28;20048;-77
2023/10/09 12:25:33;;;;;;;0.20;0.17;;;16.90;1.00;;;;;;5056607;28;20076;-77
2023/10/09 12:28:01;;;;;;;0.00;0.00;;;17.00;1.00;;;;;;5056739;28;20041;-77
2023/10/09 12:30:28;;;;;;;0.05;0.05;;;17.00;99.90;;;;;;5056824;28;20372;-78
2023/10/09 12:32:57;;;;;;;1.77;1.00;;;16.80;99.90;;;;;;5056660;28;20086;-77
2023/10/09 12:35:26;;;;;;;0.47;0.47;;;16.70;99.90;;;;;;5048845;28;20128;-77
2023/10/09 12:37:56;;;;;;;0.00;0.00;;;16.70;99.90;;;;;;5056900;28;20067;-78
2023/10/09 12:40:29;;;;;;;1.45;0.95;;;17.00;99.90;;;;;;5056552;28;20084;-77
2023/10/09 12:42:55;;;;;;;0.17;0.17;;;16.90;1.00;;;;;;5056303;28;20399;-77
2023/10/09 12:45:32;;;;;;;0.90;0.32;;;17.10;1.00;;;;;;5056090;28;20045;-76
2023/10/09 12:48:03;;;;;;;0.05;0.05;;;17.10;99.90;;;;;;5054469;28;20052;-76
2023/10/09 12:50:34;;;;;;;3.50;1.67;;;17.00;99.90;;;;;;5055671;28;20037;-77
2023/10/09 12:53:07;;;;;;;2.33;0.30;;;17.00;99.90;;;;;;5055191;28;20033;-77
2023/10/09 12:55:40;;;;;;;0.47;0.43;;;17.10;99.90;;;;;;5054820;28;20414;-76
2023/10/09 12:58:07;;;;;;;0.35;0.30;;;17.20;99.90;;;;;;5055209;28;20394;-76
2023/10/09 13:00:38;;;;;;;1.38;0.50;;;17.20;99.90;;;;;;5055420;28;20585;-76
2023/10/09 13:03:19;;;;;;;0.00;0.00;;;17.50;99.90;;;;;;5055338;28;20044;-76
2023/10/09 13:05:56;;;;;;;0.00;0.00;;;17.60;1.00;;;;;;5087409;28;20099;-76
2023/10/09 13:08:23;;;;;;;0.88;0.38;;;17.70;11.90;;;;;;5055716;28;20456;-76
2023/10/09 13:11:00;;;;;;;0.10;0.10;;;18.00;99.90;;;;;;5055551;28;20102;-77
2023/10/09 13:13:46;;;;;;;0.00;0.00;;;18.10;1.00;;;;;;5052083;28;20056;-77
2023/10/09 13:16:22;;;;;;;1.10;0.75;;;18.20;1.00;;;;;;5052002;28;20549;-77
2023/10/09 13:18:54;;;;;;;0.10;0.08;;;18.20;99.90;;;;;;5051953;28;20381;-77
2023/10/09 13:21:22;;;;;;;0.25;0.17;;;18.10;99.90;;;;;;5052336;28;20037;-77
2023/10/09 13:23:54;;;;;;;0.00;0.00;;;17.90;99.90;;;;;;5052004;28;20045;-77
2023/10/09 13:26:40;;;;;;;0.45;0.45;;;17.90;99.90;;;;;;5051839;28;20048;-77
2023/10/09 13:29:09;;;;;;;;;;;17.70;8.40;;;;;;5052495;28;20047;-77
2023/10/09 13:31:37;;;;;;;0.17;0.13;;;17.70;1.00;;;;;;5052267;28;19931;-77
2023/10/09 13:34:06;;;;;;;1.35;0.85;;;17.80;99.90;;;;;;5053636;28;20045;-76
2023/10/09 13:36:33;;;;;;;0.30;0.30;;;17.70;99.90;;;;;;5054554;28;20076;-77
2023/10/09 13:39:21;;;;;;;0.00;0.00;;;17.60;99.90;;;;;;5053909;28;20445;-77
2023/10/09 13:41:48;;;;;;;2.95;0.43;;;17.50;1.00;;;;;;5048102;28;20056;-77
2023/10/09 13:44:14;;;;;;;0.00;0.00;;;17.40;1.00;;;;;;5054771;28;20049;-77
2023/10/09 13:46:43;;;;;;;0.50;0.50;;;17.50;1.00;;;;;;5054736;28;20116;-77
2023/10/09 13:49:13;;;;;;;0.32;0.30;;;17.60;1.00;;;;;;5054804;28;20112;-77
2023/10/09 13:51:45;;;;;;;2.08;0.15;;;17.70;99.90;;;;;;5046701;28;20040;-77
2023/10/09 13:54:19;;;;;;;0.00;0.00;;;17.60;1.00;;;;;;5052310;28;20051;-77
2023/10/09 13:56:45;;;;;;;0.20;0.15;;;17.60;1.00;;;;;;5044441;28;20049;-77
2023/10/09 13:59:11;;;;;;;2.92;0.63;;;17.60;15.90;;;;;;5052519;28;20048;-77
2023/10/09 14:01:38;;;;;;;0.25;0.13;;;17.70;1.00;;;;;;5052787;28;20045;-76
2023/10/09 14:04:07;;;;;;;0.50;0.28;;;17.70;99.90;;;;;;5052257;28;20041;-77
2023/10/09 14:06:33;;;;;;;0.20;0.20;;;17.50;77.20;;;;;;5052009;28;20533;-77
2023/10/09 14:09:04;;;;;;;0.40;0.38;;;17.50;1.00;;;;;;5053787;28;20041;-76
2023/10/09 14:11:37;;;;;;;0.05;0.05;;;17.40;99.90;;;;;;5054500;28;20048;-77
2023/10/09 14:14:03;;;;;;;0.10;0.10;;;17.30;1.00;;;;;;5046311;28;20041;-77
2023/10/09 14:16:32;;;;;;;0.22;0.15;;;17.20;99.90;;;;;;5054105;28;20060;-77
2023/10/09 14:19:00;;;;;;;0.35;0.35;;;17.30;99.90;;;;;;5054020;28;20041;-77
2023/10/09 14:21:29;;;;;;;0.17;0.10;;;17.20;99.90;;;;;;5054109;28;20059;-77
2023/10/09 14:23:59;;;;;;;0.43;0.22;;;17.20;1.00;;;;;;5052670;28;20067;-77
2023/10/09 14:26:29;;;;;;;0.00;0.00;;;17.20;99.90;;;;;;5053655;28;20037;-77
2023/10/09 14:28:59;;;;;;;0.00;0.00;;;17.30;99.90;;;;;;5054041;28;20425;-77
2023/10/09 14:31:28;;;;;;;0.00;0.00;;;17.30;1.00;;;;;;5054068;28;20040;-77
2023/10/09 14:33:56;;;;;;;0.20;0.20;;;17.30;99.90;;;;;;5053554;28;20037;-77
2023/10/09 14:36:23;;;;;;;0.08;0.08;;;17.30;99.90;;;;;;5045612;28;20037;-77
2023/10/09 14:38:52;;;;;;;0.10;0.10;;;17.30;99.90;;;;;;5053731;28;20051;-77
2023/10/09 14:41:25;;;;;;;0.25;0.25;;;17.20;99.90;;;;;;5053713;28;20037;-76
2023/10/09 14:43:52;;;;;;;0.65;0.47;;;17.00;99.90;;;;;;5053305;28;20095;-76
2023/10/09 14:46:23;;;;;;;0.00;0.00;;;17.20;99.90;;;;;;5052861;28;20056;-77
2023/10/09 14:48:49;;;;;;;0.03;0.00;;;17.20;99.90;;;;;;5050693;28;20080;-77
2023/10/09 14:51:15;;;;;;;3.50;1.00;;;17.20;99.90;;;;;;5050615;28;20083;-77
2023/10/09 14:53:40;;;;;;;0.88;0.55;;;17.20;74.60;;;;;;5042265;28;20395;-77
2023/10/09 14:56:09;;;;;;;0.60;0.25;;;17.20;1.00;;;;;;5049875;28;20148;-77
2023/10/09 14:58:38;;;;;;;0.00;0.00;;;17.20;99.90;;;;;;5050420;28;20079;-77
2023/10/09 15:01:09;;;;;;;0.00;0.00;;;17.20;1.00;;;;;;5050368;28;20041;-77
2023/10/09 15:03:37;;;;;;;0.63;0.60;;;17.20;21.50;;;;;;5050205;28;20444;-77
2023/10/09 15:06:10;;;;;;;0.00;0.00;;;17.10;74.30;;;;;;5049977;28;20075;-77
2023/10/09 15:08:36;;;;;;;0.13;0.13;;;17.10;99.90;;;;;;5050074;28;20413;-77
2023/10/09 15:11:01;;;;;;;0.22;0.22;;;17.00;99.90;;;;;;5049828;28;20048;-77
2023/10/09 15:13:30;;;;;;;6.50;1.30;;;16.90;1.00;;;;;;5049589;28;20064;-77
2023/10/09 15:15:56;;;;;;;0.82;0.47;;;16.90;99.90;;;;;;5048092;28;20447;-77
2023/10/09 15:18:22;;;;;;;0.10;0.10;;;16.90;99.90;;;;;;5050664;28;20087;-77
2023/10/09 15:20:49;;;;;;;0.03;0.03;;;16.90;99.90;;;;;;5050703;28;20116;-77
2023/10/09 15:23:14;;;;;;;0.00;0.00;;;16.90;99.90;;;;;;5050359;28;20567;-77
2023/10/09 15:25:44;;;;;;;0.00;0.00;;;16.90;99.90;;;;;;5049300;28;20051;-77
2023/10/09 15:28:11;;;;;;;0.00;0.00;;;16.80;99.90;;;;;;5049468;28;20048;-77
2023/10/09 15:30:41;;;;;;;0.00;0.00;;;16.90;1.00;;;;;;5046320;28;20094;-77
2023/10/09 15:33:08;;;;;;;0.00;0.00;;;16.80;1.00;;;;;;5049686;28;20049;-77
2023/10/09 15:35:34;;;;;;;1.15;0.50;;;16.80;99.90;;;;;;5048771;28;20067;-77
2023/10/09 15:38:04;;;;;;;0.75;0.60;;;16.80;1.00;;;;;;5048970;28;20067;-77
2023/10/09 15:40:33;;;;;;;0.05;0.05;;;16.80;1.00;;;;;;5048578;28;20049;-77
2023/10/09 15:42:59;;;;;;;0.60;0.47;;;16.80;1.00;;;;;;5049388;28;20041;-77
2023/10/09 15:45:28;;;;;;;0.10;0.10;;;16.70;99.90;;;;;;5048929;28;20037;-77